• Join FlightAware (Why Join?)
  • Login
  • US Flag 
10:35AM EDT


 

Airport Tracker/Info


-or-


 

Live Flight TrackerFlight Track Log ✈ DAL6035 ✈ 24-Apr-2013 ✈ KLGA - KMHT

Flight Track Log - Related Links

Times and Time Zones

All times are in EDT time to prevent confusion due to time zone crossing. See the DAL6035 flight status page for this flight to view local times or setup timezone preferences in your user account.

Time Position Orientation Groundspeed Altitude Reporting Facility
EDT Latitude Longitude Course Direction KTS MPH feet Rate Location/Type
12:31PM 40.7667 -73.8333 27° Northeast 162 186 1,600  Level New York TRACON
12:32PM 40.7833 -73.7667 72° East 226 260 3,600 2,040 Climbing New York TRACON
12:33PM 40.8500 -73.7333 21° North 236 272 6,000 2,100 Climbing New York TRACON
12:34PM 41.1159 -73.5958 28° Northeast  Level FlightAware Approximate
12:35PM 41.2016 -73.5236 33° Northeast  Level FlightAware Approximate
12:35PM 40.9664 -73.6522 28° Northeast 290 334 9,500  Level Boston Center
12:36PM 41.2879 -73.4526 27° Northeast  Level FlightAware Approximate
12:36PM 41.0461 -73.5986 27° Northeast 290 334 11,500  Level Boston Center
12:37PM 41.1278 -73.5478 25° Northeast 309 356 13,200 1,560 Climbing Boston Center
12:38PM 41.2158 -73.4914 26° Northeast 328 377 14,700 1,500 Climbing Boston Center
12:39PM 41.3039 -73.4319 27° Northeast 349 402 16,200 1,440 Climbing Boston Center
12:40PM 41.3942 -73.3697 27° Northeast 354 407 17,600 1,500 Climbing Boston Center
12:41PM 41.4800 -73.3128 26° Northeast 365 420 19,200 1,800 Climbing Boston Center
12:42PM 41.5600 -73.2114 43° Northeast 356 410 21,300 1,800 Climbing Boston Center
12:43PM 41.6375 -73.1233 40° Northeast 356 410 22,900 840 Climbing Boston Center
12:44PM 41.7439 -73.1244 360° North 351 404 23,000  Climbing Boston Center
12:45PM 41.8606 -73.1453 352° North 370 426 23,000  Level Boston Center
12:46PM 41.9811 -73.1689 352° North 407 468 23,000  Level Boston Center
12:47PM 42.0978 -73.1900 352° North 425 489 23,000  Level Boston Center
12:48PM 42.2122 -73.2081 353° North 425 489 23,000  Level Boston Center
12:49PM 42.3169 -73.1506 22° Northeast 392 451 23,000 -720 Level Boston Center
12:50PM 42.3886 -73.0192 54° Northeast 435 501 21,500 -960 Descending Boston Center
12:51PM 42.4747 -72.8708 52° Northeast 424 488 21,000 -300 Descending Boston Center
12:52PM 42.5458 -72.7389 54° Northeast 419 482 21,000 -600 Level Boston Center
12:53PM 42.6211 -72.6178 50° Northeast 419 482 19,900 -1,800 Descending Boston Center
12:54PM 42.6881 -72.4881 55° Northeast 414 476 17,500 -2,340 Descending Boston Center
12:55PM 42.7567 -72.3636 53° Northeast 414 476 15,300 -2,100 Descending Boston Center
12:56PM 42.7961 -72.2364 67° East 387 445 13,400 -2,100 Descending Boston Center
12:57PM 42.8083 -72.0947 83° East 346 398 11,200 -1,800 Descending Boston Center
12:58PM 42.8164 -71.9900 84° East 320 368 9,800 -1,740 Descending Boston Center
12:59PM 42.8117 -71.8656 93° East 298 343 7,800 -1,800 Descending Boston Center
01:00PM 42.8047 -71.7694 96° East 291 335 6,200 -1,680 Descending Boston Center
01:01PM 42.7978 -71.6564 95° East 280 322 4,500 -1,320 Descending Boston Center
01:02PM 42.7931 -71.5714 94° East 261 300 3,600 -780 Descending Boston Center
01:03PM 42.8006 -71.4781 84° East 234 269 3,000 -420 Descending Boston Center
01:04PM 42.8147 -71.4128 73° East 201 231 2,800 -240 Descending Boston Center